sensor_id;sensor_type;location;lat;lon;timestamp;pressure;altitude;pressure_sealevel;temperature;humidity
38022;BME280;23832;43.216;27.946;2023-04-23T00:00:05;100890.53;;;13.80;100.00
38022;BME280;23832;43.216;27.946;2023-04-23T00:02:11;100894.81;;;13.81;100.00
38022;BME280;23832;43.216;27.946;2023-04-23T00:04:15;100897.75;;;13.86;100.00
38022;BME280;23832;43.216;27.946;2023-04-23T00:06:18;100895.41;;;13.98;98.94
38022;BME280;23832;43.216;27.946;2023-04-23T00:08:22;100887.00;;;13.73;100.00
38022;BME280;23832;43.216;27.946;2023-04-23T00:10:23;100890.81;;;13.85;100.00
38022;BME280;23832;43.216;27.946;2023-04-23T00:12:27;100891.53;;;13.43;100.00
38022;BME280;23832;43.216;27.946;2023-04-23T00:14:30;100887.75;;;13.67;100.00
38022;BME280;23832;43.216;27.946;2023-04-23T00:16:32;100889.00;;;13.71;100.00
38022;BME280;23832;43.216;27.946;2023-04-23T00:18:34;100884.50;;;13.86;99.21
38022;BME280;23832;43.216;27.946;2023-04-23T00:20:36;100889.50;;;13.59;100.00
38022;BME280;23832;43.216;27.946;2023-04-23T00:22:38;100889.44;;;13.74;97.90
38022;BME280;23832;43.216;27.946;2023-04-23T00:24:40;100885.84;;;13.60;100.00
38022;BME280;23832;43.216;27.946;2023-04-23T00:26:43;100883.16;;;13.24;100.00
38022;BME280;23832;43.216;27.946;2023-04-23T00:28:47;100882.03;;;13.48;100.00
38022;BME280;23832;43.216;27.946;2023-04-23T00:30:49;100878.94;;;13.45;100.00
38022;BME280;23832;43.216;27.946;2023-04-23T00:32:51;100887.69;;;13.60;100.00
38022;BME280;23832;43.216;27.946;2023-04-23T00:34:53;100884.91;;;13.68;98.84
38022;BME280;23832;43.216;27.946;2023-04-23T00:36:56;100884.41;;;13.79;97.36
38022;BME280;23832;43.216;27.946;2023-04-23T00:38:58;100886.94;;;13.66;98.15
38022;BME280;23832;43.216;27.946;2023-04-23T00:41:00;100880.78;;;13.66;97.70
38022;BME280;23832;43.216;27.946;2023-04-23T00:43:03;100912.72;;;13.43;100.00
38022;BME280;23832;43.216;27.946;2023-04-23T00:45:08;100873.34;;;13.54;99.65
38022;BME280;23832;43.216;27.946;2023-04-23T00:47:10;100878.53;;;13.62;98.42
38022;BME280;23832;43.216;27.946;2023-04-23T00:49:12;100883.75;;;13.56;99.16
38022;BME280;23832;43.216;27.946;2023-04-23T00:51:16;100882.28;;;13.53;99.02
38022;BME280;23832;43.216;27.946;2023-04-23T00:53:18;100885.03;;;13.45;100.00
38022;BME280;23832;43.216;27.946;2023-04-23T00:55:20;100883.03;;;13.47;100.00
38022;BME280;23832;43.216;27.946;2023-04-23T00:57:22;100885.88;;;13.46;100.00
38022;BME280;23832;43.216;27.946;2023-04-23T00:59:25;100886.50;;;13.48;100.00
38022;BME280;23832;43.216;27.946;2023-04-23T01:01:29;100882.00;;;13.63;98.75
38022;BME280;23832;43.216;27.946;2023-04-23T01:03:32;100890.72;;;13.42;100.00
38022;BME280;23832;43.216;27.946;2023-04-23T01:05:35;100880.66;;;13.38;100.00
38022;BME280;23832;43.216;27.946;2023-04-23T01:07:37;100875.28;;;13.46;100.00
38022;BME280;23832;43.216;27.946;2023-04-23T01:09:40;100884.44;;;13.28;100.00
38022;BME280;23832;43.216;27.946;2023-04-23T01:11:42;100877.22;;;13.07;100.00
38022;BME280;23832;43.216;27.946;2023-04-23T01:13:44;100879.38;;;13.19;100.00
38022;BME280;23832;43.216;27.946;2023-04-23T01:15:47;100878.47;;;13.12;100.00
38022;BME280;23832;43.216;27.946;2023-04-23T01:17:50;100872.00;;;13.14;100.00
38022;BME280;23832;43.216;27.946;2023-04-23T01:19:52;100878.84;;;13.38;100.00
38022;BME280;23832;43.216;27.946;2023-04-23T01:21:56;100878.50;;;13.41;100.00
38022;BME280;23832;43.216;27.946;2023-04-23T01:24:01;100877.06;;;13.24;100.00
38022;BME280;23832;43.216;27.946;2023-04-23T01:26:03;100870.81;;;13.17;100.00
38022;BME280;23832;43.216;27.946;2023-04-23T01:28:06;100874.47;;;13.16;100.00
38022;BME280;23832;43.216;27.946;2023-04-23T01:30:08;100885.00;;;13.24;100.00
38022;BME280;23832;43.216;27.946;2023-04-23T01:32:11;100877.94;;;13.16;100.00
38022;BME280;23832;43.216;27.946;2023-04-23T01:34:12;100883.25;;;13.31;100.00
38022;BME280;23832;43.216;27.946;2023-04-23T01:36:14;100887.44;;;13.40;100.00
38022;BME280;23832;43.216;27.946;2023-04-23T01:38:16;100885.69;;;13.47;100.00
38022;BME280;23832;43.216;27.946;2023-04-23T01:40:20;100890.38;;;13.30;100.00
38022;BME280;23832;43.216;27.946;2023-04-23T01:42:22;100884.69;;;13.19;100.00
38022;BME280;23832;43.216;27.946;2023-04-23T01:44:24;100888.25;;;12.96;100.00
38022;BME280;23832;43.216;27.946;2023-04-23T01:46:26;100888.41;;;12.80;100.00
38022;BME280;23832;43.216;27.946;2023-04-23T01:48:27;100885.31;;;12.76;100.00
38022;BME280;23832;43.216;27.946;2023-04-23T01:50:30;100889.78;;;12.76;100.00
38022;BME280;23832;43.216;27.946;2023-04-23T01:52:32;100892.03;;;12.49;100.00
38022;BME280;23832;43.216;27.946;2023-04-23T01:54:34;100897.06;;;12.59;100.00
38022;BME280;23832;43.216;27.946;2023-04-23T01:56:37;100888.06;;;12.83;100.00
38022;BME280;23832;43.216;27.946;2023-04-23T01:58:39;100891.09;;;12.95;100.00
38022;BME280;23832;43.216;27.946;2023-04-23T02:00:41;100892.91;;;12.94;100.00
38022;BME280;23832;43.216;27.946;2023-04-23T02:02:44;100889.72;;;13.14;100.00
38022;BME280;23832;43.216;27.946;2023-04-23T02:04:46;100892.47;;;13.20;100.00
38022;BME280;23832;43.216;27.946;2023-04-23T02:06:49;100890.63;;;13.06;100.00
38022;BME280;23832;43.216;27.946;2023-04-23T02:08:51;100890.34;;;13.16;100.00
38022;BME280;23832;43.216;27.946;2023-04-23T02:10:55;100893.28;;;13.21;100.00
38022;BME280;23832;43.216;27.946;2023-04-23T02:12:58;100893.81;;;13.16;100.00
38022;BME280;23832;43.216;27.946;2023-04-23T02:15:00;100895.81;;;12.99;100.00
38022;BME280;23832;43.216;27.946;2023-04-23T02:17:02;100896.03;;;13.13;100.00
38022;BME280;23832;43.216;27.946;2023-04-23T02:19:04;100893.19;;;13.14;100.00
38022;BME280;23832;43.216;27.946;2023-04-23T02:21:06;100892.38;;;13.14;100.00
38022;BME280;23832;43.216;27.946;2023-04-23T02:23:08;100899.88;;;13.25;100.00
38022;BME280;23832;43.216;27.946;2023-04-23T02:25:11;100901.31;;;13.27;100.00
38022;BME280;23832;43.216;27.946;2023-04-23T02:27:16;100895.00;;;13.28;100.00
38022;BME280;23832;43.216;27.946;2023-04-23T02:29:19;100896.75;;;13.36;100.00
38022;BME280;23832;43.216;27.946;2023-04-23T02:31:22;100897.75;;;13.35;100.00
38022;BME280;23832;43.216;27.946;2023-04-23T02:33:24;100892.47;;;13.35;100.00
38022;BME280;23832;43.216;27.946;2023-04-23T02:35:27;100896.56;;;13.08;100.00
38022;BME280;23832;43.216;27.946;2023-04-23T02:37:28;100892.66;;;13.04;100.00
38022;BME280;23832;43.216;27.946;2023-04-23T02:39:30;100899.66;;;12.97;100.00
38022;BME280;23832;43.216;27.946;2023-04-23T02:41:32;100889.44;;;13.08;100.00
38022;BME280;23832;43.216;27.946;2023-04-23T02:43:34;100896.63;;;12.70;100.00
38022;BME280;23832;43.216;27.946;2023-04-23T02:45:38;100898.38;;;12.78;100.00
38022;BME280;23832;43.216;27.946;2023-04-23T02:47:40;100900.19;;;12.77;100.00
38022;BME280;23832;43.216;27.946;2023-04-23T02:49:43;100905.41;;;13.00;100.00
38022;BME280;23832;43.216;27.946;2023-04-23T02:51:45;100907.69;;;13.03;100.00
38022;BME280;23832;43.216;27.946;2023-04-23T02:53:48;100904.66;;;12.77;100.00
38022;BME280;23832;43.216;27.946;2023-04-23T02:55:51;100897.13;;;13.03;100.00
38022;BME280;23832;43.216;27.946;2023-04-23T02:57:53;100894.63;;;13.17;100.00
38022;BME280;23832;43.216;27.946;2023-04-23T02:59:55;100900.69;;;13.25;100.00
38022;BME280;23832;43.216;27.946;2023-04-23T03:01:59;100897.00;;;13.12;100.00
38022;BME280;23832;43.216;27.946;2023-04-23T03:04:01;100904.41;;;13.01;100.00
38022;BME280;23832;43.216;27.946;2023-04-23T03:06:04;100914.81;;;12.88;100.00
38022;BME280;23832;43.216;27.946;2023-04-23T03:08:07;100908.59;;;12.81;100.00
38022;BME280;23832;43.216;27.946;2023-04-23T03:10:10;100903.50;;;12.94;100.00
38022;BME280;23832;43.216;27.946;2023-04-23T03:12:12;100903.75;;;12.99;100.00
38022;BME280;23832;43.216;27.946;2023-04-23T03:14:17;100900.38;;;12.91;100.00
38022;BME280;23832;43.216;27.946;2023-04-23T03:16:19;100900.34;;;12.76;100.00
38022;BME280;23832;43.216;27.946;2023-04-23T03:18:23;100909.38;;;12.67;100.00
38022;BME280;23832;43.216;27.946;2023-04-23T03:20:25;100913.16;;;12.87;100.00
38022;BME280;23832;43.216;27.946;2023-04-23T03:22:27;100903.41;;;12.88;100.00
38022;BME280;23832;43.216;27.946;2023-04-23T03:24:29;100910.69;;;13.00;100.00
38022;BME280;23832;43.216;27.946;2023-04-23T03:26:33;100903.78;;;13.14;100.00
38022;BME280;23832;43.216;27.946;2023-04-23T03:28:37;100915.66;;;13.03;100.00
38022;BME280;23832;43.216;27.946;2023-04-23T03:30:40;100904.88;;;13.20;100.00
38022;BME280;23832;43.216;27.946;2023-04-23T03:32:42;100907.44;;;13.28;100.00
38022;BME280;23832;43.216;27.946;2023-04-23T03:34:46;100900.78;;;13.32;100.00
38022;BME280;23832;43.216;27.946;2023-04-23T03:36:49;100909.34;;;13.34;100.00
38022;BME280;23832;43.216;27.946;2023-04-23T03:38:51;100907.69;;;13.48;100.00
38022;BME280;23832;43.216;27.946;2023-04-23T03:40:53;100913.94;;;13.40;100.00
38022;BME280;23832;43.216;27.946;2023-04-23T03:42:57;100913.16;;;13.46;100.00
38022;BME280;23832;43.216;27.946;2023-04-23T03:44:59;100914.28;;;13.52;100.00
38022;BME280;23832;43.216;27.946;2023-04-23T03:47:01;100915.72;;;13.54;100.00
38022;BME280;23832;43.216;27.946;2023-04-23T03:49:03;100911.75;;;13.65;100.00
38022;BME280;23832;43.216;27.946;2023-04-23T03:51:09;100918.00;;;13.57;100.00
38022;BME280;23832;43.216;27.946;2023-04-23T03:53:11;100923.94;;;13.59;100.00
38022;BME280;23832;43.216;27.946;2023-04-23T03:55:12;100927.13;;;13.55;100.00
38022;BME280;23832;43.216;27.946;2023-04-23T03:57:15;100929.78;;;13.11;100.00
38022;BME280;23832;43.216;27.946;2023-04-23T03:59:17;100926.22;;;13.48;100.00
38022;BME280;23832;43.216;27.946;2023-04-23T04:01:19;100935.03;;;13.48;100.00
38022;BME280;23832;43.216;27.946;2023-04-23T04:03:21;100931.25;;;13.57;100.00
38022;BME280;23832;43.216;27.946;2023-04-23T04:05:23;100936.81;;;13.62;100.00
38022;BME280;23832;43.216;27.946;2023-04-23T04:07:27;100935.59;;;13.80;100.00
38022;BME280;23832;43.216;27.946;2023-04-23T04:09:29;100946.47;;;13.70;100.00
38022;BME280;23832;43.216;27.946;2023-04-23T04:11:31;100942.91;;;13.78;100.00
38022;BME280;23832;43.216;27.946;2023-04-23T04:13:33;100953.13;;;13.81;100.00
38022;BME280;23832;43.216;27.946;2023-04-23T04:15:35;100956.78;;;13.80;100.00
38022;BME280;23832;43.216;27.946;2023-04-23T04:17:37;100953.03;;;14.10;100.00
38022;BME280;23832;43.216;27.946;2023-04-23T04:19:39;100960.63;;;14.13;100.00
38022;BME280;23832;43.216;27.946;2023-04-23T04:21:41;100953.31;;;14.37;100.00
38022;BME280;23832;43.216;27.946;2023-04-23T04:23:45;100952.03;;;14.47;100.00
38022;BME280;23832;43.216;27.946;2023-04-23T04:25:47;100956.69;;;14.67;100.00
38022;BME280;23832;43.216;27.946;2023-04-23T04:27:50;100953.91;;;14.82;98.11
38022;BME280;23832;43.216;27.946;2023-04-23T04:29:54;100951.59;;;14.72;100.00
38022;BME280;23832;43.216;27.946;2023-04-23T04:31:56;100954.38;;;14.85;98.82
38022;BME280;23832;43.216;27.946;2023-04-23T04:33:58;100950.50;;;14.88;99.73
38022;BME280;23832;43.216;27.946;2023-04-23T04:36:01;100956.50;;;15.31;95.29
38022;BME280;23832;43.216;27.946;2023-04-23T04:38:04;100960.38;;;15.63;90.89
38022;BME280;23832;43.216;27.946;2023-04-23T04:40:07;100957.53;;;15.71;89.50
38022;BME280;23832;43.216;27.946;2023-04-23T04:42:10;100959.91;;;16.01;85.86
38022;BME280;23832;43.216;27.946;2023-04-23T04:44:12;100959.34;;;16.18;83.78
38022;BME280;23832;43.216;27.946;2023-04-23T04:46:15;100965.69;;;16.44;81.03
38022;BME280;23832;43.216;27.946;2023-04-23T04:48:19;100964.69;;;16.52;79.53
38022;BME280;23832;43.216;27.946;2023-04-23T04:50:21;100963.88;;;16.51;80.14
38022;BME280;23832;43.216;27.946;2023-04-23T04:52:23;100963.69;;;16.46;81.06
38022;BME280;23832;43.216;27.946;2023-04-23T04:54:25;100970.06;;;16.71;79.43
38022;BME280;23832;43.216;27.946;2023-04-23T04:56:29;100973.94;;;16.82;79.22
38022;BME280;23832;43.216;27.946;2023-04-23T04:58:31;100974.53;;;16.97;78.02
38022;BME280;23832;43.216;27.946;2023-04-23T05:00:33;100919.25;;;16.60;78.33
38022;BME280;23832;43.216;27.946;2023-04-23T05:02:35;100974.34;;;16.86;78.48
38022;BME280;23832;43.216;27.946;2023-04-23T05:04:37;100972.06;;;17.16;76.68
38022;BME280;23832;43.216;27.946;2023-04-23T05:06:39;100967.53;;;17.23;75.94
38022;BME280;23832;43.216;27.946;2023-04-23T05:08:42;100964.56;;;17.71;73.58
38022;BME280;23832;43.216;27.946;2023-04-23T05:10:47;100971.78;;;18.02;71.22
38022;BME280;23832;43.216;27.946;2023-04-23T05:12:52;100970.97;;;18.33;69.38
38022;BME280;23832;43.216;27.946;2023-04-23T05:14:55;100971.44;;;18.55;67.94
38022;BME280;23832;43.216;27.946;2023-04-23T05:16:57;100968.53;;;18.63;67.08
38022;BME280;23832;43.216;27.946;2023-04-23T05:19:00;100971.78;;;18.71;66.67
38022;BME280;23832;43.216;27.946;2023-04-23T05:21:02;100975.66;;;18.94;65.97
38022;BME280;23832;43.216;27.946;2023-04-23T05:23:04;100976.59;;;19.06;64.54
38022;BME280;23832;43.216;27.946;2023-04-23T05:25:07;100977.97;;;19.34;63.67
38022;BME280;23832;43.216;27.946;2023-04-23T05:27:12;100975.66;;;19.55;62.69
38022;BME280;23832;43.216;27.946;2023-04-23T05:29:16;100986.53;;;19.79;61.51
38022;BME280;23832;43.216;27.946;2023-04-23T05:31:18;100984.47;;;19.93;60.96
38022;BME280;23832;43.216;27.946;2023-04-23T05:33:20;100977.03;;;19.95;60.63
38022;BME280;23832;43.216;27.946;2023-04-23T05:35:24;100982.31;;;20.01;60.48
38022;BME280;23832;43.216;27.946;2023-04-23T05:37:26;100978.28;;;20.10;60.26
38022;BME280;23832;43.216;27.946;2023-04-23T05:39:28;100976.25;;;20.36;59.38
38022;BME280;23832;43.216;27.946;2023-04-23T05:41:30;100984.72;;;20.51;59.32
38022;BME280;23832;43.216;27.946;2023-04-23T05:43:33;100976.22;;;20.66;58.98
38022;BME280;23832;43.216;27.946;2023-04-23T05:45:39;100975.31;;;20.84;57.96
38022;BME280;23832;43.216;27.946;2023-04-23T05:47:41;100980.78;;;21.01;57.07
38022;BME280;23832;43.216;27.946;2023-04-23T05:49:43;100981.38;;;21.14;56.41
38022;BME280;23832;43.216;27.946;2023-04-23T05:51:45;100974.06;;;20.86;56.55
38022;BME280;23832;43.216;27.946;2023-04-23T05:53:47;100981.16;;;21.28;56.07
38022;BME280;23832;43.216;27.946;2023-04-23T05:55:49;100983.38;;;21.42;55.65
38022;BME280;23832;43.216;27.946;2023-04-23T05:57:51;100976.00;;;21.49;54.60
38022;BME280;23832;43.216;27.946;2023-04-23T05:59:53;100979.28;;;21.80;52.95
38022;BME280;23832;43.216;27.946;2023-04-23T06:01:58;100983.63;;;22.09;52.12
38022;BME280;23832;43.216;27.946;2023-04-23T06:04:00;100980.56;;;22.18;52.23
38022;BME280;23832;43.216;27.946;2023-04-23T06:06:03;100984.88;;;22.19;51.85
38022;BME280;23832;43.216;27.946;2023-04-23T06:08:06;100975.47;;;22.33;51.33
38022;BME280;23832;43.216;27.946;2023-04-23T06:10:09;100980.59;;;22.06;51.10
38022;BME280;23832;43.216;27.946;2023-04-23T06:12:13;100981.91;;;22.32;50.76
38022;BME280;23832;43.216;27.946;2023-04-23T06:14:15;100986.38;;;22.43;50.91
38022;BME280;23832;43.216;27.946;2023-04-23T06:16:19;100987.38;;;22.71;50.07
38022;BME280;23832;43.216;27.946;2023-04-23T06:18:27;100989.03;;;22.88;49.91
38022;BME280;23832;43.216;27.946;2023-04-23T06:20:29;100985.97;;;23.18;48.54
38022;BME280;23832;43.216;27.946;2023-04-23T06:22:33;100991.16;;;23.25;48.61
38022;BME280;23832;43.216;27.946;2023-04-23T06:24:34;100985.19;;;23.40;48.26
38022;BME280;23832;43.216;27.946;2023-04-23T06:26:36;100989.03;;;23.88;47.43
38022;BME280;23832;43.216;27.946;2023-04-23T06:28:39;100989.38;;;24.18;46.72
38022;BME280;23832;43.216;27.946;2023-04-23T06:30:46;100984.81;;;24.51;46.14
38022;BME280;23832;43.216;27.946;2023-04-23T06:32:50;100990.63;;;24.70;44.96
38022;BME280;23832;43.216;27.946;2023-04-23T06:34:55;100986.56;;;24.67;44.47
38022;BME280;23832;43.216;27.946;2023-04-23T06:36:58;100991.00;;;24.83;44.40
38022;BME280;23832;43.216;27.946;2023-04-23T06:39:05;100985.81;;;24.40;44.60
38022;BME280;23832;43.216;27.946;2023-04-23T06:41:07;100986.19;;;25.28;43.23
38022;BME280;23832;43.216;27.946;2023-04-23T06:43:09;100987.00;;;25.33;42.60
38022;BME280;23832;43.216;27.946;2023-04-23T06:45:11;100988.94;;;25.43;42.92
38022;BME280;23832;43.216;27.946;2023-04-23T06:47:14;100994.47;;;25.16;43.21
38022;BME280;23832;43.216;27.946;2023-04-23T06:49:20;100990.06;;;25.52;41.16
38022;BME280;23832;43.216;27.946;2023-04-23T06:51:24;100989.56;;;25.60;41.54
38022;BME280;23832;43.216;27.946;2023-04-23T06:53:27;100988.09;;;25.95;40.64
38022;BME280;23832;43.216;27.946;2023-04-23T06:55:36;100992.78;;;26.35;38.69
38022;BME280;23832;43.216;27.946;2023-04-23T06:57:47;100995.75;;;26.49;38.39
38022;BME280;23832;43.216;27.946;2023-04-23T06:59:49;100997.09;;;26.97;37.06
38022;BME280;23832;43.216;27.946;2023-04-23T07:01:51;101002.28;;;26.43;37.37
38022;BME280;23832;43.216;27.946;2023-04-23T07:03:54;100997.94;;;26.57;36.84
38022;BME280;23832;43.216;27.946;2023-04-23T07:05:56;100995.78;;;26.64;36.77
38022;BME280;23832;43.216;27.946;2023-04-23T07:07:59;100998.47;;;26.54;36.89
38022;BME280;23832;43.216;27.946;2023-04-23T07:10:01;101003.34;;;26.82;37.32
38022;BME280;23832;43.216;27.946;2023-04-23T07:12:04;100987.31;;;26.04;38.23
38022;BME280;23832;43.216;27.946;2023-04-23T07:14:06;100993.34;;;26.57;37.06
38022;BME280;23832;43.216;27.946;2023-04-23T07:16:08;101000.03;;;26.19;37.22
38022;BME280;23832;43.216;27.946;2023-04-23T07:18:10;100996.59;;;26.70;35.91
38022;BME280;23832;43.216;27.946;2023-04-23T07:20:14;101003.97;;;25.76;37.49
38022;BME280;23832;43.216;27.946;2023-04-23T07:22:16;100999.72;;;26.06;37.18
38022;BME280;23832;43.216;27.946;2023-04-23T07:24:21;101004.97;;;26.78;35.69
38022;BME280;23832;43.216;27.946;2023-04-23T07:26:25;101003.34;;;26.57;34.90
38022;BME280;23832;43.216;27.946;2023-04-23T07:28:32;101003.88;;;26.49;35.45
38022;BME280;23832;43.216;27.946;2023-04-23T07:30:33;101005.72;;;26.18;34.89
38022;BME280;23832;43.216;27.946;2023-04-23T07:32:35;101007.59;;;26.07;36.44
38022;BME280;23832;43.216;27.946;2023-04-23T07:34:37;101005.25;;;26.87;36.53
38022;BME280;23832;43.216;27.946;2023-04-23T07:36:41;101004.16;;;26.63;37.61
38022;BME280;23832;43.216;27.946;2023-04-23T07:38:43;101003.88;;;26.64;38.04
38022;BME280;23832;43.216;27.946;2023-04-23T07:40:47;101007.22;;;27.71;37.01
38022;BME280;23832;43.216;27.946;2023-04-23T07:42:49;101006.31;;;27.06;37.67
38022;BME280;23832;43.216;27.946;2023-04-23T07:44:51;101006.31;;;26.96;36.17
38022;BME280;23832;43.216;27.946;2023-04-23T07:46:53;101012.72;;;27.31;36.48
38022;BME280;23832;43.216;27.946;2023-04-23T07:48:54;101007.66;;;26.68;36.98
38022;BME280;23832;43.216;27.946;2023-04-23T07:50:56;101008.31;;;27.55;36.55
38022;BME280;23832;43.216;27.946;2023-04-23T07:52:58;101011.66;;;28.46;35.42
38022;BME280;23832;43.216;27.946;2023-04-23T07:55:00;101013.72;;;28.59;34.86
38022;BME280;23832;43.216;27.946;2023-04-23T07:57:04;101008.06;;;28.84;34.49
38022;BME280;23832;43.216;27.946;2023-04-23T07:59:06;100996.50;;;27.31;35.12
38022;BME280;23832;43.216;27.946;2023-04-23T08:01:09;101004.03;;;28.48;34.73
38022;BME280;23832;43.216;27.946;2023-04-23T08:03:13;101004.50;;;28.60;34.19
38022;BME280;23832;43.216;27.946;2023-04-23T08:05:15;100998.00;;;28.17;33.67
38022;BME280;23832;43.216;27.946;2023-04-23T08:07:17;101008.53;;;28.23;35.03
38022;BME280;23832;43.216;27.946;2023-04-23T08:09:21;100995.78;;;29.88;34.23
38022;BME280;23832;43.216;27.946;2023-04-23T08:11:23;100995.38;;;30.51;33.56
38022;BME280;23832;43.216;27.946;2023-04-23T08:13:26;101005.66;;;31.33;32.60
38022;BME280;23832;43.216;27.946;2023-04-23T08:15:27;100993.06;;;32.01;30.41
38022;BME280;23832;43.216;27.946;2023-04-23T08:17:29;101003.25;;;32.09;29.81
38022;BME280;23832;43.216;27.946;2023-04-23T08:19:31;100999.59;;;32.58;30.47
38022;BME280;23832;43.216;27.946;2023-04-23T08:21:33;101035.19;;;32.75;29.75
38022;BME280;23832;43.216;27.946;2023-04-23T08:23:37;100995.13;;;33.24;28.93
38022;BME280;23832;43.216;27.946;2023-04-23T08:25:38;100996.28;;;33.98;27.38
38022;BME280;23832;43.216;27.946;2023-04-23T08:27:40;100997.56;;;33.35;29.24
38022;BME280;23832;43.216;27.946;2023-04-23T08:29:44;100987.75;;;33.91;27.95
38022;BME280;23832;43.216;27.946;2023-04-23T08:31:46;100991.41;;;33.77;28.69
38022;BME280;23832;43.216;27.946;2023-04-23T08:33:47;100985.81;;;33.91;28.74
38022;BME280;23832;43.216;27.946;2023-04-23T08:35:49;100988.84;;;34.33;28.34
38022;BME280;23832;43.216;27.946;2023-04-23T08:37:51;100991.22;;;33.65;28.86
38022;BME280;23832;43.216;27.946;2023-04-23T08:39:52;100977.47;;;35.54;25.42
38022;BME280;23832;43.216;27.946;2023-04-23T08:41:54;100985.88;;;35.99;26.04
38022;BME280;23832;43.216;27.946;2023-04-23T08:44:01;100984.28;;;36.52;24.44
38022;BME280;23832;43.216;27.946;2023-04-23T08:46:06;100968.06;;;35.64;26.61
38022;BME280;23832;43.216;27.946;2023-04-23T08:48:12;100978.09;;;35.60;25.80
38022;BME280;23832;43.216;27.946;2023-04-23T08:50:15;100974.34;;;35.64;25.95
38022;BME280;23832;43.216;27.946;2023-04-23T08:52:18;100976.38;;;36.30;25.71
38022;BME280;23832;43.216;27.946;2023-04-23T08:54:24;100970.59;;;35.48;26.97
38022;BME280;23832;43.216;27.946;2023-04-23T08:56:26;100973.31;;;35.98;26.17
38022;BME280;23832;43.216;27.946;2023-04-23T08:58:28;100978.97;;;36.92;25.13
38022;BME280;23832;43.216;27.946;2023-04-23T09:00:32;100965.91;;;36.77;24.32
38022;BME280;23832;43.216;27.946;2023-04-23T09:02:36;100970.69;;;36.02;24.93
38022;BME280;23832;43.216;27.946;2023-04-23T09:04:38;100970.22;;;36.00;25.38
38022;BME280;23832;43.216;27.946;2023-04-23T09:06:40;100973.50;;;36.47;24.53
38022;BME280;23832;43.216;27.946;2023-04-23T09:08:41;100964.84;;;36.03;25.30
38022;BME280;23832;43.216;27.946;2023-04-23T09:10:44;100974.81;;;35.45;26.65
38022;BME280;23832;43.216;27.946;2023-04-23T09:12:46;100970.94;;;36.09;25.03
38022;BME280;23832;43.216;27.946;2023-04-23T09:14:48;100968.81;;;36.15;25.17
38022;BME280;23832;43.216;27.946;2023-04-23T09:16:50;100975.44;;;36.14;25.59
38022;BME280;23832;43.216;27.946;2023-04-23T09:18:54;100969.41;;;36.65;24.40
38022;BME280;23832;43.216;27.946;2023-04-23T09:20:57;100973.53;;;37.69;22.33
38022;BME280;23832;43.216;27.946;2023-04-23T09:22:59;100966.72;;;38.63;21.80
38022;BME280;23832;43.216;27.946;2023-04-23T09:25:01;100967.38;;;38.28;22.25
38022;BME280;23832;43.216;27.946;2023-04-23T09:27:05;100971.28;;;37.47;23.97
38022;BME280;23832;43.216;27.946;2023-04-23T09:29:09;100963.50;;;36.76;24.55
38022;BME280;23832;43.216;27.946;2023-04-23T09:31:13;100964.91;;;37.31;23.66
38022;BME280;23832;43.216;27.946;2023-04-23T09:33:15;100968.56;;;36.98;24.59
38022;BME280;23832;43.216;27.946;2023-04-23T09:35:18;100972.06;;;37.60;24.08
38022;BME280;23832;43.216;27.946;2023-04-23T09:37:20;100967.34;;;37.72;23.39
38022;BME280;23832;43.216;27.946;2023-04-23T09:39:25;100964.22;;;38.14;22.63
38022;BME280;23832;43.216;27.946;2023-04-23T09:41:27;100973.06;;;38.36;23.24
38022;BME280;23832;43.216;27.946;2023-04-23T09:43:30;100966.53;;;38.40;22.68
38022;BME280;23832;43.216;27.946;2023-04-23T09:45:32;100956.72;;;38.27;22.36
38022;BME280;23832;43.216;27.946;2023-04-23T09:47:37;100961.09;;;38.44;22.26
38022;BME280;23832;43.216;27.946;2023-04-23T09:49:45;100966.25;;;37.49;23.15
38022;BME280;23832;43.216;27.946;2023-04-23T09:51:48;100954.81;;;37.35;21.98
38022;BME280;23832;43.216;27.946;2023-04-23T09:53:50;100967.13;;;37.77;21.71
38022;BME280;23832;43.216;27.946;2023-04-23T09:55:52;100957.94;;;37.86;22.21
38022;BME280;23832;43.216;27.946;2023-04-23T09:57:54;100961.63;;;37.65;22.27
38022;BME280;23832;43.216;27.946;2023-04-23T09:59:56;100953.72;;;38.32;21.51
38022;BME280;23832;43.216;27.946;2023-04-23T10:02:00;100957.31;;;37.92;22.19
38022;BME280;23832;43.216;27.946;2023-04-23T10:04:02;100952.66;;;37.81;22.52
38022;BME280;23832;43.216;27.946;2023-04-23T10:06:04;100949.75;;;37.49;22.24
38022;BME280;23832;43.216;27.946;2023-04-23T10:08:08;100945.56;;;38.51;21.84
38022;BME280;23832;43.216;27.946;2023-04-23T10:10:13;100948.72;;;37.94;22.18
38022;BME280;23832;43.216;27.946;2023-04-23T10:12:15;100938.22;;;37.71;21.61
38022;BME280;23832;43.216;27.946;2023-04-23T10:14:17;100948.28;;;39.30;20.59
38022;BME280;23832;43.216;27.946;2023-04-23T10:16:20;100941.88;;;38.75;21.08
38022;BME280;23832;43.216;27.946;2023-04-23T10:18:23;100938.63;;;36.27;22.99
38022;BME280;23832;43.216;27.946;2023-04-23T10:20:26;100936.69;;;35.94;22.23
38022;BME280;23832;43.216;27.946;2023-04-23T10:22:28;100938.38;;;37.63;21.12
38022;BME280;23832;43.216;27.946;2023-04-23T10:24:32;100943.25;;;36.92;22.33
38022;BME280;23832;43.216;27.946;2023-04-23T10:26:34;100938.97;;;35.92;23.12
38022;BME280;23832;43.216;27.946;2023-04-23T10:28:38;100942.59;;;34.57;23.58